createdAt,value
2023-01-30T00:14:58.972Z,9.47
2023-01-30T00:30:05.221Z,9.10
2023-01-30T00:45:33.468Z,8.90
2023-01-30T01:00:38.216Z,9.23
2023-01-30T01:15:43.973Z,7.87
2023-01-30T01:30:48.245Z,9.17
2023-01-30T01:46:01.812Z,8.43
2023-01-30T02:01:07.158Z,7.67
2023-01-30T02:16:11.700Z,7.37
2023-01-30T02:31:21.397Z,6.27
2023-01-30T02:46:27.930Z,6.60
2023-01-30T03:01:41.573Z,7.37
2023-01-30T03:16:47.570Z,7.33
2023-01-30T03:31:52.267Z,6.97
2023-01-30T03:46:57.800Z,6.70
2023-01-30T04:02:03.002Z,6.70
2023-01-30T04:17:07.831Z,7.30
2023-01-30T04:32:37.925Z,8.50
2023-01-30T04:47:42.468Z,9.03
2023-01-30T05:02:47.580Z,9.23
2023-01-30T05:17:51.853Z,9.73
2023-01-30T05:32:55.992Z,9.20
2023-01-30T05:48:01.514Z,10.53
2023-01-30T06:03:06.176Z,11.40
2023-01-30T06:18:10.531Z,11.33
2023-01-30T06:33:15.097Z,12.63
2023-01-30T06:48:19.971Z,12.83
2023-01-30T07:03:25.261Z,12.93
2023-01-30T07:18:29.533Z,12.27
2023-01-30T07:33:34.115Z,12.83
2023-01-30T07:48:39.016Z,11.63
2023-01-30T08:03:44.607Z,11.47
2023-01-30T08:18:49.337Z,11.90
2023-01-30T08:33:53.950Z,11.83
2023-01-30T08:48:59.401Z,10.73
2023-01-30T09:04:04.029Z,11.17
2023-01-30T09:19:08.315Z,8.50
2023-01-30T09:34:12.884Z,8.40
2023-01-30T09:49:28.595Z,8.83
2023-01-30T10:04:37.402Z,8.33
2023-01-30T10:19:57.471Z,8.83
2023-01-30T10:35:11.150Z,9.07
2023-01-30T10:50:17.186Z,10.10
2023-01-30T11:05:26.253Z,10.90
2023-01-30T11:20:31.098Z,9.40
2023-01-30T11:35:36.838Z,9.77
2023-01-30T11:50:46.827Z,12.10
2023-01-30T12:05:56.112Z,11.83
2023-01-30T12:21:01.406Z,10.40
2023-01-30T12:36:12.714Z,10.87
2023-01-30T12:51:30.243Z,11.33
2023-01-30T13:06:52.654Z,10.50
2023-01-30T13:22:10.618Z,10.57
2023-01-30T13:37:16.815Z,10.17
2023-01-30T13:52:37.038Z,11.10
2023-01-30T14:07:43.184Z,11.70
2023-01-30T14:22:54.087Z,12.80
2023-01-30T14:38:21.230Z,12.50
2023-01-30T14:53:25.654Z,12.53
2023-01-30T15:08:30.191Z,12.47
2023-01-30T15:23:41.323Z,13.17
2023-01-30T15:38:45.561Z,12.90
2023-01-30T15:53:50.170Z,13.50
2023-01-30T16:24:37.934Z,13.23
2023-01-30T16:39:42.642Z,17.30
2023-01-30T16:54:54.566Z,19.07
2023-01-30T17:09:58.831Z,12.20
2023-01-30T17:25:14.989Z,12.33
2023-01-30T17:40:20.278Z,11.20
2023-01-30T17:55:24.843Z,12.63
2023-01-30T18:10:29.137Z,13.80
2023-01-30T18:25:33.984Z,21.43
2023-01-30T18:40:40.671Z,20.03
2023-01-30T18:55:50.126Z,20.97
2023-01-30T19:10:54.810Z,18.60
2023-01-30T19:26:02.382Z,17.47
2023-01-30T19:41:11.371Z,21.37
2023-01-30T19:56:16.457Z,23.03
2023-01-30T20:11:22.606Z,23.30
2023-01-30T20:26:29.551Z,20.80
2023-01-30T20:41:36.324Z,14.10
2023-01-30T20:56:44.310Z,10.90
2023-01-30T21:11:49.104Z,12.43
2023-01-30T21:26:53.977Z,11.63
2023-01-30T21:42:17.422Z,10.63
2023-01-30T21:57:21.959Z,10.97
2023-01-30T22:12:27.280Z,10.40
2023-01-30T22:27:31.491Z,10.30
2023-01-30T22:42:36.015Z,10.87
2023-01-30T22:57:40.854Z,8.73
2023-01-30T23:13:04.691Z,9.23
2023-01-30T23:28:09.343Z,9.23
2023-01-30T23:43:14.357Z,7.23
2023-01-30T23:58:18.638Z,9.00
